Time;durP1;ratioP1;P1;durP2;ratioP2;P2;SDS_P1;SDS_P2;PMS_P1;PMS_P2;Temp;Humidity;BMP_temperature;BMP_pressure;BME280_temperature;BME280_humidity;BME280_pressure;Samples;Min_cycle;Max_cycle;Signal;HPM_P1;HPM_P2
2021/07/17 00:02:22;;;;;;;16.50;6.90;;;16.90;99.90;;;;;;5004948;28;20207;-80
2021/07/17 00:04:49;;;;;;;14.52;6.38;;;16.90;99.90;;;;;;5007349;28;20227;-80
2021/07/17 00:07:16;;;;;;;17.08;7.10;;;16.80;99.90;;;;;;5005188;28;20584;-77
2021/07/17 00:09:43;;;;;;;20.20;7.45;;;16.70;99.90;;;;;;5006239;28;20203;-82
2021/07/17 00:12:11;;;;;;;16.67;6.57;;;16.70;99.90;;;;;;5006177;28;20218;-79
2021/07/17 00:14:39;;;;;;;24.38;8.52;;;16.70;99.90;;;;;;5006515;28;20235;-79
2021/07/17 00:17:06;;;;;;;19.98;7.32;;;16.60;99.90;;;;;;5006433;28;20211;-80
2021/07/17 00:19:33;;;;;;;13.57;6.15;;;16.60;99.90;;;;;;5006127;28;20508;-79
2021/07/17 00:21:59;;;;;;;21.63;7.32;;;16.50;99.90;;;;;;5005556;28;20196;-79
2021/07/17 00:24:26;;;;;;;14.23;6.32;;;16.50;99.90;;;;;;5005847;28;20230;-79
2021/07/17 00:26:53;;;;;;;13.55;5.93;;;16.40;99.90;;;;;;5006058;28;20203;-78
2021/07/17 00:29:20;;;;;;;20.75;7.30;;;16.30;99.90;;;;;;5006431;28;20275;-78
2021/07/17 00:31:48;;;;;;;13.48;6.00;;;16.30;99.90;;;;;;5006293;28;20214;-78
2021/07/17 00:34:16;;;;;;;19.58;9.02;;;16.30;99.90;;;;;;5005610;28;20605;-79
2021/07/17 00:36:43;;;;;;;16.90;7.07;;;16.30;99.90;;;;;;5025065;28;20214;-79
2021/07/17 00:39:10;;;;;;;13.73;7.10;;;16.20;99.90;;;;;;5024807;28;20221;-79
2021/07/17 00:41:36;;;;;;;14.27;6.75;;;16.10;99.90;;;;;;5025360;28;20641;-78
2021/07/17 00:44:03;;;;;;;16.95;6.80;;;16.10;99.90;;;;;;5023572;28;20234;-79
2021/07/17 00:53:24;;;;;;;22.27;7.63;;;15.90;99.90;;;;;;4955981;28;20210;-80
2021/07/17 00:55:52;;;;;;;17.52;6.95;;;15.90;99.90;;;;;;5029435;28;20206;-80
2021/07/17 00:58:23;;;;;;;17.55;7.28;;;15.90;99.90;;;;;;5025991;28;20606;-80
2021/07/17 01:00:51;;;;;;;20.73;7.50;;;15.80;99.90;;;;;;5026090;28;20202;-79
2021/07/17 01:03:19;;;;;;;18.05;6.85;;;15.80;99.90;;;;;;5019134;28;20682;-82
2021/07/17 01:05:46;;;;;;;20.05;8.20;;;15.80;99.90;;;;;;5004566;28;20514;-79
2021/07/17 01:08:13;;;;;;;15.38;7.38;;;15.70;99.90;;;;;;5004884;28;20260;-80
2021/07/17 01:10:42;;;;;;;13.95;6.15;;;15.70;99.90;;;;;;5004875;28;20207;-80
2021/07/17 01:13:09;;;;;;;10.48;6.05;;;15.60;99.90;;;;;;5004456;28;20316;-79
2021/07/17 01:15:36;;;;;;;12.43;6.90;;;15.60;99.90;;;;;;5004856;28;20203;-81
2021/07/17 01:18:03;;;;;;;14.18;6.40;;;15.60;99.90;;;;;;5004670;28;20210;-78
2021/07/17 01:20:32;;;;;;;17.77;7.05;;;15.50;99.90;;;;;;5004814;28;20218;-79
2021/07/17 01:23:01;;;;;;;15.93;7.40;;;15.50;99.90;;;;;;5005397;28;20526;-78
2021/07/17 01:25:31;;;;;;;11.27;5.47;;;15.50;99.90;;;;;;5004688;28;20235;-78
2021/07/17 01:27:59;;;;;;;11.27;5.32;;;15.50;99.90;;;;;;5006092;28;20296;-80
2021/07/17 01:30:28;;;;;;;8.90;5.20;;;15.40;99.90;;;;;;5005378;28;20218;-79
2021/07/17 01:32:55;;;;;;;9.40;5.80;;;15.40;99.90;;;;;;5004584;28;20294;-79
2021/07/17 01:35:22;;;;;;;15.90;6.22;;;15.40;99.90;;;;;;5005015;28;20279;-80
2021/07/17 01:37:49;;;;;;;10.30;5.90;;;15.30;99.90;;;;;;5005117;28;20203;-80
2021/07/17 01:40:21;;;;;;;9.27;5.70;;;15.30;99.90;;;;;;5003945;28;20287;-81
2021/07/17 01:42:49;;;;;;;9.13;5.57;;;15.30;99.90;;;;;;5004425;28;20215;-79
2021/07/17 01:45:23;;;;;;;11.43;5.33;;;15.30;99.90;;;;;;5004254;28;20223;-78
2021/07/17 01:47:51;;;;;;;10.80;5.20;;;15.20;99.90;;;;;;5003812;28;20203;-79
2021/07/17 01:50:17;;;;;;;12.17;5.40;;;15.20;99.90;;;;;;5004571;28;20596;-79
2021/07/17 01:52:48;;;;;;;12.32;5.43;;;15.20;99.90;;;;;;5004537;28;20215;-79
2021/07/17 01:55:14;;;;;;;7.97;5.15;;;15.20;99.90;;;;;;5003971;28;20215;-79
2021/07/17 01:57:43;;;;;;;12.97;5.77;;;15.20;99.90;;;;;;5004806;28;20491;-80
2021/07/17 02:00:11;;;;;;;9.77;5.72;;;15.10;99.90;;;;;;5003786;28;20373;-79
2021/07/17 02:02:38;;;;;;;9.67;5.70;;;15.10;99.90;;;;;;5004864;28;20820;-80
2021/07/17 02:05:05;;;;;;;9.73;5.40;;;15.10;99.90;;;;;;5007829;28;20231;-80
2021/07/17 02:07:33;;;;;;;13.80;6.53;;;15.10;99.90;;;;;;5008613;28;20204;-79
2021/07/17 02:10:00;;;;;;;16.10;6.27;;;15.10;99.90;;;;;;5006588;28;20206;-78
2021/07/17 02:12:26;;;;;;;10.20;5.40;;;15.00;99.90;;;;;;5005895;28;20577;-77
2021/07/17 02:14:55;;;;;;;12.37;6.00;;;15.00;99.90;;;;;;5004789;28;20251;-79
2021/07/17 02:17:21;;;;;;;11.70;5.75;;;15.00;99.90;;;;;;5005314;28;20631;-78
2021/07/17 02:19:48;;;;;;;10.67;5.20;;;15.00;99.90;;;;;;5005469;28;20567;-78
2021/07/17 02:22:15;;;;;;;7.73;5.10;;;15.00;99.90;;;;;;5004180;28;20199;-78
2021/07/17 02:24:42;;;;;;;9.77;5.50;;;14.90;99.90;;;;;;5004818;28;20227;-79
2021/07/17 02:27:09;;;;;;;10.97;6.00;;;14.90;99.90;;;;;;5004552;28;20195;-80
2021/07/17 02:29:35;;;;;;;11.03;5.93;;;14.90;99.90;;;;;;5005028;28;20215;-80
2021/07/17 02:32:04;;;;;;;12.73;5.33;;;14.90;99.90;;;;;;5007976;28;20192;-79
2021/07/17 02:34:31;;;;;;;11.80;6.70;;;14.90;99.90;;;;;;5008480;28;20203;-78
2021/07/17 02:36:58;;;;;;;12.53;5.93;;;14.90;99.90;;;;;;5007870;28;20607;-79
2021/07/17 02:39:24;;;;;;;10.23;5.63;;;14.90;99.90;;;;;;5008398;28;20207;-79
2021/07/17 02:41:51;;;;;;;11.90;5.67;;;14.90;99.90;;;;;;5008400;28;20203;-78
2021/07/17 02:44:18;;;;;;;14.40;5.73;;;14.90;99.90;;;;;;5007285;28;20229;-78
2021/07/17 02:46:45;;;;;;;14.00;6.27;;;14.80;99.90;;;;;;5007946;28;20211;-79
2021/07/17 02:49:15;;;;;;;14.97;6.70;;;14.80;99.90;;;;;;5007415;28;20207;-79
2021/07/17 02:51:41;;;;;;;19.80;7.47;;;14.90;99.90;;;;;;5006472;28;20229;-80
2021/07/17 02:54:10;;;;;;;14.97;6.17;;;14.90;99.90;;;;;;5007465;28;20211;-81
2021/07/17 02:56:37;;;;;;;14.17;6.50;;;14.90;99.90;;;;;;5006766;28;20202;-81
2021/07/17 02:59:04;;;;;;;15.33;6.60;;;14.90;99.90;;;;;;5007526;28;20223;-81
2021/07/17 03:01:31;;;;;;;19.17;7.63;;;14.90;99.90;;;;;;5006740;28;20214;-78
2021/07/17 03:03:58;;;;;;;20.40;7.47;;;15.00;99.90;;;;;;5006369;28;20208;-80
2021/07/17 03:06:26;;;;;;;20.53;7.40;;;15.00;99.90;;;;;;5007612;28;20206;-81
2021/07/17 03:08:53;;;;;;;19.43;7.20;;;15.10;99.90;;;;;;5007066;28;20206;-79
2021/07/17 03:11:20;;;;;;;22.63;8.03;;;15.10;99.90;;;;;;5026084;28;20242;-80
2021/07/17 03:13:46;;;;;;;19.23;7.47;;;15.20;99.90;;;;;;5026646;28;20242;-80
2021/07/17 03:16:15;;;;;;;22.00;7.47;;;15.20;99.90;;;;;;5026897;28;20195;-79
2021/07/17 03:18:42;;;;;;;19.87;8.13;;;15.20;99.90;;;;;;5027289;28;20227;-81
2021/07/17 03:21:09;;;;;;;21.43;7.33;;;15.30;99.90;;;;;;5032529;28;20206;-79
2021/07/17 03:23:37;;;;;;;19.47;6.87;;;15.30;99.90;;;;;;5024676;28;20207;-81
2021/07/17 03:26:04;;;;;;;23.55;7.82;;;15.40;99.90;;;;;;5012044;28;20545;-80
2021/07/17 03:28:31;;;;;;;24.10;7.93;;;15.40;99.90;;;;;;5009269;28;20595;-80
2021/07/17 03:30:58;;;;;;;20.20;6.38;;;15.50;99.90;;;;;;5008113;28;20207;-79
2021/07/17 03:33:24;;;;;;;22.43;6.67;;;15.50;99.90;;;;;;5007013;28;20218;-80
2021/07/17 03:35:51;;;;;;;17.85;6.95;;;15.50;99.90;;;;;;5006996;28;20195;-78
2021/07/17 03:38:18;;;;;;;20.13;7.57;;;15.60;99.90;;;;;;5006771;28;20219;-79
2021/07/17 03:40:46;;;;;;;21.88;7.20;;;15.60;99.90;;;;;;5005976;28;20211;-80
2021/07/17 03:43:13;;;;;;;16.02;6.50;;;15.60;99.90;;;;;;5007098;28;20298;-79
2021/07/17 03:45:40;;;;;;;25.23;7.82;;;15.60;99.90;;;;;;5006271;28;20231;-79
2021/07/17 03:48:07;;;;;;;23.73;7.13;;;15.60;99.90;;;;;;5006530;28;20206;-79
2021/07/17 03:50:34;;;;;;;18.45;6.25;;;15.70;99.90;;;;;;5005783;28;20215;-80
2021/07/17 03:53:01;;;;;;;21.45;6.90;;;15.70;99.90;;;;;;5005979;28;20787;-80
2021/07/17 03:55:28;;;;;;;22.33;7.70;;;15.70;99.90;;;;;;5005660;28;20215;-79
2021/07/17 03:57:57;;;;;;;21.85;8.18;;;15.70;99.90;;;;;;5006431;28;20250;-81
2021/07/17 04:00:23;;;;;;;19.75;6.88;;;15.70;99.90;;;;;;5005826;28;20199;-80
2021/07/17 04:02:50;;;;;;;20.97;7.27;;;15.70;99.90;;;;;;5025759;28;20214;-80
2021/07/17 04:05:19;;;;;;;16.17;6.68;;;15.70;99.90;;;;;;5010509;28;20226;-80
2021/07/17 04:07:46;;;;;;;18.75;6.40;;;15.80;99.90;;;;;;5005467;28;20265;-80
2021/07/17 04:10:14;;;;;;;19.45;5.95;;;15.80;99.90;;;;;;5006190;28;20195;-80
2021/07/17 04:12:41;;;;;;;20.50;6.30;;;15.80;99.90;;;;;;5005412;28;20742;-79
2021/07/17 04:15:10;;;;;;;16.93;6.67;;;15.90;99.90;;;;;;5005392;28;20269;-81
2021/07/17 04:17:37;;;;;;;19.23;6.85;;;15.90;99.90;;;;;;5005793;28;20607;-80
2021/07/17 04:20:05;;;;;;;21.85;6.13;;;15.90;99.90;;;;;;5005695;28;20508;-80
2021/07/17 04:22:32;;;;;;;23.23;7.03;;;16.00;99.90;;;;;;5005234;28;20199;-82
2021/07/17 04:24:58;;;;;;;23.05;6.18;;;16.00;99.90;;;;;;5005689;28;20239;-79
2021/07/17 04:27:25;;;;;;;15.13;6.20;;;16.00;99.90;;;;;;5005558;28;20207;-78
2021/07/17 04:29:52;;;;;;;14.85;6.22;;;16.10;99.90;;;;;;5005544;28;20203;-79
2021/07/17 04:32:20;;;;;;;16.13;5.38;;;16.10;99.90;;;;;;5005801;28;20211;-81
2021/07/17 04:34:47;;;;;;;17.83;6.10;;;16.10;99.90;;;;;;5027910;28;20852;-79
2021/07/17 04:37:16;;;;;;;16.80;5.63;;;16.10;99.90;;;;;;5031695;28;20211;-79
2021/07/17 04:39:42;;;;;;;18.65;6.00;;;16.20;99.90;;;;;;5007752;28;20270;-78
2021/07/17 04:42:09;;;;;;;17.17;5.60;;;16.20;99.90;;;;;;5015695;28;20203;-79
2021/07/17 04:44:36;;;;;;;18.52;5.72;;;16.20;99.90;;;;;;5012446;28;20203;-79
2021/07/17 04:47:03;;;;;;;17.15;5.70;;;16.30;99.90;;;;;;5028645;28;20199;-79
2021/07/17 04:49:32;;;;;;;13.15;5.93;;;16.40;99.90;;;;;;5022174;28;20203;-79
2021/07/17 04:51:59;;;;;;;11.13;5.65;;;16.40;99.90;;;;;;5006149;28;20203;-79
2021/07/17 04:54:26;;;;;;;18.60;6.00;;;16.50;99.90;;;;;;5005932;28;20206;-80
2021/07/17 04:56:52;;;;;;;17.15;5.35;;;16.50;99.90;;;;;;5005480;28;20275;-80
2021/07/17 04:59:19;;;;;;;19.17;6.53;;;16.50;99.90;;;;;;5005648;28;20233;-79
2021/07/17 05:01:46;;;;;;;14.43;4.93;;;16.60;99.90;;;;;;5005860;28;20207;-79
2021/07/17 05:04:13;;;;;;;12.43;5.32;;;16.60;99.90;;;;;;5005684;28;20233;-80
2021/07/17 05:06:41;;;;;;;19.83;5.55;;;16.70;99.90;;;;;;5006095;28;20254;-80
2021/07/17 05:09:08;;;;;;;12.75;5.55;;;16.70;99.90;;;;;;5006347;28;20219;-80
2021/07/17 05:11:35;;;;;;;17.77;5.80;;;16.80;99.90;;;;;;5005376;28;20219;-79
2021/07/17 05:14:01;;;;;;;11.25;5.20;;;16.80;99.90;;;;;;5006069;28;20235;-79
2021/07/17 05:16:28;;;;;;;22.08;6.18;;;16.90;99.90;;;;;;5005322;28;20902;-81
2021/07/17 05:18:55;;;;;;;14.93;5.32;;;16.90;99.90;;;;;;5005420;28;20203;-80
2021/07/17 05:21:22;;;;;;;11.60;5.25;;;17.00;99.90;;;;;;5006130;28;20223;-77
2021/07/17 05:23:50;;;;;;;13.75;5.38;;;17.10;99.90;;;;;;5005001;28;20195;-78
2021/07/17 05:26:17;;;;;;;20.42;5.47;;;17.10;99.90;;;;;;5005184;28;20227;-79
2021/07/17 05:28:44;;;;;;;15.18;5.07;;;17.20;99.90;;;;;;5005525;28;20214;-82
2021/07/17 05:31:10;;;;;;;13.77;5.15;;;17.20;99.90;;;;;;5005642;28;20518;-80
2021/07/17 05:33:37;;;;;;;14.23;5.30;;;17.30;99.90;;;;;;5004165;28;20210;-80
2021/07/17 05:36:04;;;;;;;12.73;5.18;;;17.50;99.90;;;;;;5005392;28;20227;-79
2021/07/17 05:38:31;;;;;;;11.77;4.72;;;17.80;99.90;;;;;;5004439;28;20236;-80
2021/07/17 05:40:59;;;;;;;17.65;5.07;;;18.10;99.90;;;;;;5004403;28;20214;-81
2021/07/17 05:43:26;;;;;;;11.13;4.30;;;18.30;99.90;;;;;;5005211;28;20214;-82
2021/07/17 05:45:54;;;;;;;11.85;4.55;;;18.60;99.90;;;;;;5003885;28;20262;-81
2021/07/17 05:48:21;;;;;;;12.75;4.13;;;18.90;99.90;;;;;;5005200;28;20203;-80
2021/07/17 05:50:48;;;;;;;13.77;4.80;;;19.10;99.90;;;;;;5004073;28;20211;-79
2021/07/17 05:53:16;;;;;;;10.75;3.70;;;19.30;99.90;;;;;;5005870;28;20230;-81
2021/07/17 05:55:43;;;;;;;9.10;3.47;;;19.50;99.90;;;;;;5032397;28;20203;-79
2021/07/17 05:58:11;;;;;;;8.55;3.53;;;19.70;99.90;;;;;;5011063;28;20231;-79
2021/07/17 06:00:40;;;;;;;14.32;4.35;;;19.90;99.90;;;;;;5009277;28;20234;-81
2021/07/17 06:03:07;;;;;;;13.90;3.85;;;20.20;99.90;;;;;;5008803;28;20261;-80
2021/07/17 06:05:34;;;;;;;9.98;3.72;;;20.40;99.90;;;;;;5008525;28;20230;-80
2021/07/17 06:08:01;;;;;;;8.05;3.17;;;20.60;99.90;;;;;;5008875;28;20203;-80
2021/07/17 06:10:27;;;;;;;9.00;3.35;;;20.80;99.90;;;;;;5008004;28;20218;-78
2021/07/17 06:12:54;;;;;;;11.30;3.25;;;21.00;99.90;;;;;;5008713;28;20203;-80
2021/07/17 06:15:22;;;;;;;9.57;3.17;;;21.30;99.90;;;;;;5007720;28;20243;-78
2021/07/17 06:17:53;;;;;;;8.60;2.88;;;21.50;99.90;;;;;;5007397;28;20216;-80
2021/07/17 06:20:20;;;;;;;6.82;3.13;;;21.70;99.90;;;;;;5007826;28;20203;-78
2021/07/17 06:22:46;;;;;;;12.15;3.50;;;21.90;99.90;;;;;;5006972;28;20195;-79
2021/07/17 06:25:13;;;;;;;10.57;3.65;;;22.10;99.90;;;;;;5007537;28;20201;-79
2021/07/17 06:27:40;;;;;;;9.63;3.05;;;22.20;99.90;;;;;;5007301;28;20203;-79
2021/07/17 06:30:08;;;;;;;7.53;3.03;;;22.40;99.90;;;;;;5007724;28;20207;-79
2021/07/17 06:32:36;;;;;;;13.35;3.17;;;22.60;99.90;;;;;;5007128;28;20523;-79
2021/07/17 06:35:04;;;;;;;10.57;3.53;;;22.70;99.90;;;;;;5007607;28;20214;-80
2021/07/17 06:37:31;;;;;;;6.38;2.55;;;22.80;99.90;;;;;;5007823;28;20210;-79
2021/07/17 06:39:58;;;;;;;9.93;3.28;;;22.90;99.90;;;;;;5008361;28;20206;-79
2021/07/17 06:42:24;;;;;;;10.30;2.83;;;23.00;99.90;;;;;;5007666;28;20199;-80
2021/07/17 06:44:51;;;;;;;9.63;2.85;;;23.20;99.90;;;;;;5006541;28;20203;-81
2021/07/17 06:47:18;;;;;;;6.57;2.42;;;23.40;99.90;;;;;;5007778;28;20223;-79
2021/07/17 06:49:46;;;;;;;10.43;3.13;;;23.50;99.90;;;;;;4983299;28;20203;-79
2021/07/17 06:52:13;;;;;;;8.25;2.72;;;23.50;99.90;;;;;;5007720;28;20206;-79
2021/07/17 06:54:40;;;;;;;7.55;3.17;;;23.70;99.90;;;;;;5007364;28;20506;-79
2021/07/17 06:57:06;;;;;;;8.43;2.72;;;24.00;99.90;;;;;;5007040;28;20645;-81
2021/07/17 06:59:33;;;;;;;7.43;2.30;;;24.30;99.90;;;;;;5007491;28;20223;-81
2021/07/17 07:02:00;;;;;;;6.55;2.50;;;24.50;99.90;;;;;;5007501;28;20215;-79
2021/07/17 07:04:27;;;;;;;6.38;2.50;;;24.70;99.90;;;;;;5006942;28;20208;-80
2021/07/17 07:10:27;;;;;;;7.18;2.25;;;24.70;99.90;;;;;;4944055;28;20209;-78
2021/07/17 07:12:54;;;;;;;7.95;2.47;;;25.00;99.90;;;;;;5027549;28;20586;-78
2021/07/17 07:15:21;;;;;;;4.80;2.50;;;25.20;99.90;;;;;;5042148;28;20237;-78
2021/07/17 07:17:47;;;;;;;6.53;2.42;;;25.30;99.90;;;;;;5021520;28;20593;-80
2021/07/17 07:20:15;;;;;;;6.03;2.33;;;25.30;99.90;;;;;;5008736;28;20519;-77
2021/07/17 07:22:42;;;;;;;4.50;2.35;;;25.40;99.90;;;;;;5005871;28;20657;-81
2021/07/17 07:25:10;;;;;;;6.00;2.13;;;25.70;99.90;;;;;;5006570;28;20210;-80
2021/07/17 07:27:38;;;;;;;7.47;2.15;;;25.80;99.90;;;;;;5006411;28;20231;-82
2021/07/17 07:30:07;;;;;;;6.65;2.05;;;25.90;99.90;;;;;;5007569;28;20215;-80
2021/07/17 07:32:33;;;;;;;7.32;2.45;;;26.10;99.90;;;;;;5005493;28;20211;-80
2021/07/17 07:35:00;;;;;;;6.18;2.22;;;26.20;99.90;;;;;;5007229;28;20191;-79
2021/07/17 07:37:27;;;;;;;6.95;2.35;;;26.20;99.90;;;;;;5006766;28;20206;-79
2021/07/17 07:39:54;;;;;;;5.25;2.28;;;26.30;99.90;;;;;;5006205;28;20203;-78
2021/07/17 07:42:21;;;;;;;4.35;1.75;;;26.50;99.90;;;;;;5006572;28;20207;-79
2021/07/17 07:44:49;;;;;;;5.38;2.15;;;26.70;99.90;;;;;;5010412;28;20209;-79
2021/07/17 07:47:16;;;;;;;4.93;2.20;;;27.00;99.90;;;;;;5026107;28;20218;-80
2021/07/17 07:49:43;;;;;;;9.05;2.60;;;27.10;99.90;;;;;;5025566;28;20229;-77
2021/07/17 07:52:10;;;;;;;5.18;1.88;;;27.20;99.90;;;;;;5009574;28;20908;-79
2021/07/17 07:54:37;;;;;;;6.75;2.25;;;27.30;99.90;;;;;;5005221;28;20206;-77
2021/07/17 07:57:04;;;;;;;6.32;1.83;;;27.50;99.90;;;;;;5005859;28;20218;-78
2021/07/17 07:59:31;;;;;;;3.35;1.52;;;27.40;99.90;;;;;;5004340;28;20893;-78
2021/07/17 08:01:59;;;;;;;3.92;1.85;;;27.40;99.90;;;;;;5005683;28;20198;-79
2021/07/17 08:04:26;;;;;;;4.38;1.85;;;27.60;99.90;;;;;;5005809;28;20204;-79
2021/07/17 08:06:53;;;;;;;6.45;2.10;;;27.70;99.90;;;;;;5004306;28;20234;-78
2021/07/17 08:09:19;;;;;;;5.50;2.10;;;27.80;99.90;;;;;;5005832;28;20596;-79
2021/07/17 08:11:46;;;;;;;4.70;1.80;;;27.80;99.90;;;;;;5005157;28;20626;-80
2021/07/17 08:14:13;;;;;;;2.88;1.40;;;27.90;99.90;;;;;;5004935;28;20239;-80
2021/07/17 08:16:40;;;;;;;7.15;1.95;;;28.10;99.90;;;;;;5005148;28;20214;-79
2021/07/17 08:19:08;;;;;;;5.70;1.90;;;28.10;99.90;;;;;;5005821;28;20426;-79
2021/07/17 08:21:35;;;;;;;3.53;1.65;;;28.10;99.90;;;;;;5004765;28;20211;-79
2021/07/17 08:24:03;;;;;;;4.13;1.73;;;28.30;99.90;;;;;;5005883;28;20281;-80
2021/07/17 08:26:30;;;;;;;3.50;1.90;;;28.20;99.90;;;;;;5004210;28;20227;-80
2021/07/17 08:28:57;;;;;;;3.78;1.55;;;28.30;99.90;;;;;;5004254;28;20203;-78
2021/07/17 08:31:24;;;;;;;4.80;1.80;;;28.40;99.90;;;;;;5005913;28;20214;-79
2021/07/17 08:33:50;;;;;;;4.00;1.58;;;28.20;99.90;;;;;;5005012;28;20204;-80
2021/07/17 08:36:18;;;;;;;3.80;1.60;;;28.30;99.90;;;;;;5005225;28;20219;-80
2021/07/17 08:38:45;;;;;;;3.75;1.88;;;28.40;99.90;;;;;;5005759;28;20211;-79
2021/07/17 08:41:13;;;;;;;6.30;1.70;;;28.30;99.90;;;;;;5004896;28;20211;-80
2021/07/17 08:43:40;;;;;;;5.15;1.70;;;28.30;99.90;;;;;;5005787;28;20207;-82
2021/07/17 08:46:07;;;;;;;4.95;1.73;;;28.40;99.90;;;;;;5005868;28;20230;-80
2021/07/17 08:48:35;;;;;;;2.60;1.30;;;28.20;99.90;;;;;;5004800;28;20210;-80
2021/07/17 08:51:05;;;;;;;5.50;1.60;;;28.30;99.90;;;;;;5005264;28;20235;-80
2021/07/17 08:53:33;;;;;;;3.80;1.42;;;28.40;99.90;;;;;;5004942;28;20243;-79
2021/07/17 08:56:00;;;;;;;6.25;1.42;;;28.10;99.90;;;;;;5005429;28;20203;-82
2021/07/17 08:58:28;;;;;;;5.97;1.70;;;28.10;99.90;;;;;;5005967;28;20250;-80
2021/07/17 09:00:54;;;;;;;3.60;1.52;;;28.00;99.90;;;;;;5004701;28;20681;-81
2021/07/17 09:03:21;;;;;;;3.45;1.50;;;28.10;99.90;;;;;;5005012;28;20249;-82
2021/07/17 09:05:49;;;;;;;2.90;1.42;;;28.20;99.90;;;;;;5004916;28;20207;-80
2021/07/17 09:08:19;;;;;;;3.50;1.65;;;28.10;99.90;;;;;;5005482;28;20273;-82
2021/07/17 09:10:47;;;;;;;3.88;1.35;;;28.40;99.90;;;;;;5003663;28;20218;-81
2021/07/17 09:13:20;;;;;;;2.05;0.98;;;28.60;99.90;;;;;;5004809;28;20207;-82
2021/07/17 09:15:56;;;;;;;3.65;1.52;;;28.70;99.90;;;;;;5005225;28;20197;-80
2021/07/17 09:18:44;;;;;;;3.58;1.40;;;28.70;99.90;;;;;;5005666;28;20207;-81
2021/07/17 09:21:14;;;;;;;5.05;1.67;;;28.40;99.90;;;;;;5005362;28;20249;-82
2021/07/17 09:23:43;;;;;;;3.75;1.35;;;28.60;99.90;;;;;;5004332;28;20505;-81
2021/07/17 09:26:14;;;;;;;2.40;1.10;;;28.70;99.90;;;;;;5005503;28;20211;-81
2021/07/17 09:28:41;;;;;;;5.28;1.67;;;28.80;99.90;;;;;;5005007;28;20203;-85
2021/07/17 09:31:08;;;;;;;2.50;1.30;;;28.90;99.90;;;;;;5006218;28;20877;-83
2021/07/17 09:33:36;;;;;;;3.30;1.30;;;29.00;99.90;;;;;;5006890;28;20246;-80
2021/07/17 09:36:03;;;;;;;4.03;1.20;;;28.70;99.90;;;;;;5007704;28;20198;-88
2021/07/17 09:38:32;;;;;;;3.70;1.55;;;28.80;99.90;;;;;;5006633;28;20730;-79
2021/07/17 09:41:01;;;;;;;3.85;1.33;;;28.70;99.90;;;;;;5025400;28;20217;-81
2021/07/17 09:43:42;;;;;;;3.80;1.38;;;28.60;99.90;;;;;;5031156;28;20203;-85
2021/07/17 09:46:21;;;;;;;4.07;1.70;;;28.90;99.90;;;;;;5030428;28;20228;-86
2021/07/17 09:48:52;;;;;;;3.22;1.50;;;29.00;99.90;;;;;;5031375;28;20256;-82
2021/07/17 09:51:20;;;;;;;2.67;1.45;;;28.80;99.90;;;;;;5031056;28;20198;-80
2021/07/17 09:53:48;;;;;;;3.30;1.77;;;29.00;99.90;;;;;;5023323;28;20202;-81
2021/07/17 09:56:18;;;;;;;4.53;1.85;;;29.20;99.90;;;;;;5010193;28;20501;-83
2021/07/17 09:58:46;;;;;;;3.78;1.70;;;29.30;99.90;;;;;;5009130;28;20281;-81
2021/07/17 10:01:19;;;;;;;5.50;1.90;;;29.10;99.90;;;;;;5010792;28;20218;-86
2021/07/17 10:03:47;;;;;;;4.10;2.20;;;28.90;99.90;;;;;;5009482;28;20531;-86
2021/07/17 10:06:38;;;;;;;7.57;2.83;;;28.80;99.90;;;;;;5009906;28;20631;-84
2021/07/17 10:09:06;;;;;;;7.97;2.50;;;29.00;99.90;;;;;;5010842;28;20765;-80
2021/07/17 10:11:33;;;;;;;7.80;3.08;;;29.10;99.90;;;;;;5009133;28;20207;-83
2021/07/17 10:14:16;;;;;;;7.25;1.90;;;29.30;99.90;;;;;;5008666;28;20227;-81
2021/07/17 10:16:43;;;;;;;7.47;2.90;;;29.40;99.90;;;;;;5008732;28;20199;-82
2021/07/17 10:19:10;;;;;;;6.47;2.40;;;29.40;99.90;;;;;;5008620;28;20203;-81
2021/07/17 10:21:37;;;;;;;6.40;2.55;;;29.50;99.90;;;;;;5008009;28;20215;-81
2021/07/17 10:24:05;;;;;;;7.97;2.70;;;29.50;99.90;;;;;;5009052;28;20210;-83
2021/07/17 10:26:32;;;;;;;8.32;2.72;;;29.60;99.90;;;;;;5008654;28;20662;-80
2021/07/17 10:29:06;;;;;;;8.20;2.60;;;29.50;99.90;;;;;;5008022;28;20191;-80
2021/07/17 10:31:33;;;;;;;8.35;3.00;;;29.20;99.90;;;;;;5007965;28;20611;-80
2021/07/17 10:34:00;;;;;;;4.65;2.38;;;29.10;99.90;;;;;;5007820;28;20215;-81
2021/07/17 10:36:27;;;;;;;9.20;3.33;;;29.10;99.90;;;;;;5008382;28;20210;-83
2021/07/17 10:38:59;;;;;;;7.72;2.40;;;29.20;99.90;;;;;;5008172;28;20679;-81
2021/07/17 10:41:30;;;;;;;7.32;2.75;;;29.10;99.90;;;;;;5027454;28;20206;-82
2021/07/17 10:43:57;;;;;;;7.97;2.58;;;28.90;99.90;;;;;;5028315;28;20210;-82
2021/07/17 10:46:32;;;;;;;7.38;2.33;;;29.00;99.90;;;;;;5026054;28;20206;-82
2021/07/17 10:49:03;;;;;;;9.15;2.80;;;28.90;99.90;;;;;;5007868;28;20187;-81
2021/07/17 10:51:34;;;;;;;6.32;2.40;;;28.80;99.90;;;;;;5007735;28;20203;-82
2021/07/17 10:54:05;;;;;;;7.35;2.40;;;28.80;99.90;;;;;;5019700;28;20211;-80
2021/07/17 10:56:43;;;;;;;8.07;2.58;;;29.00;99.90;;;;;;5026614;28;20206;-80
2021/07/17 10:59:44;;;;;;;11.23;3.33;;;29.10;99.90;;;;;;5025746;28;20230;-87
2021/07/17 11:02:15;;;;;;;9.23;3.00;;;29.00;99.90;;;;;;5026818;28;20507;-83
2021/07/17 11:04:48;;;;;;;7.53;3.00;;;29.10;99.90;;;;;;5007695;28;20357;-80
2021/07/17 11:07:40;;;;;;;5.03;2.28;;;28.90;99.90;;;;;;5016376;28;20229;-80
2021/07/17 11:10:13;;;;;;;7.95;2.90;;;29.00;99.90;;;;;;5025144;28;20661;-83
2021/07/17 11:13:01;;;;;;;9.07;2.85;;;29.00;99.90;;;;;;5007441;28;20211;-81
2021/07/17 11:15:48;;;;;;;4.70;2.40;;;28.90;99.90;;;;;;5002386;28;20243;-80
2021/07/17 11:18:39;;;;;;;7.28;2.78;;;29.00;99.90;;;;;;5007503;28;20837;-82
2021/07/17 11:21:11;;;;;;;9.05;2.72;;;28.80;99.90;;;;;;5007742;28;20199;-83
2021/07/17 11:23:44;;;;;;;6.75;2.55;;;28.70;99.90;;;;;;5006773;28;20239;-81
2021/07/17 11:26:20;;;;;;;10.15;2.80;;;28.60;99.90;;;;;;5008648;28;20239;-85
2021/07/17 11:29:04;;;;;;;5.60;2.28;;;28.40;99.90;;;;;;5008075;28;20273;-83
2021/07/17 11:31:39;;;;;;;8.88;2.28;;;28.50;99.90;;;;;;5007252;28;20592;-83
2021/07/17 11:34:45;;;;;;;5.80;2.30;;;28.60;99.90;;;;;;5007665;28;20214;-83
2021/07/17 11:37:18;;;;;;;7.15;2.55;;;28.60;99.90;;;;;;5007561;28;20211;-84
2021/07/17 11:39:48;;;;;;;5.18;2.10;;;28.40;99.90;;;;;;5008213;28;20209;-84
2021/07/17 11:42:16;;;;;;;6.97;2.15;;;28.60;99.90;;;;;;5007232;28;20203;-82
2021/07/17 11:44:45;;;;;;;6.15;2.20;;;28.50;99.90;;;;;;5016924;28;20210;-80
2021/07/17 11:47:15;;;;;;;6.07;2.58;;;28.60;99.90;;;;;;5026690;28;20223;-81
2021/07/17 11:49:43;;;;;;;6.68;2.33;;;28.50;99.90;;;;;;5012815;28;20199;-80
2021/07/17 11:52:13;;;;;;;6.70;2.33;;;28.50;99.90;;;;;;5005842;28;20207;-80
2021/07/17 11:54:42;;;;;;;6.57;2.15;;;28.40;99.90;;;;;;5006362;28;20199;-81
2021/07/17 11:57:16;;;;;;;8.07;1.98;;;28.40;99.90;;;;;;5006446;28;20195;-80
2021/07/17 11:59:45;;;;;;;5.57;1.83;;;28.60;99.90;;;;;;5005539;28;20226;-81
2021/07/17 12:02:14;;;;;;;3.95;1.80;;;28.60;99.90;;;;;;5014391;28;20206;-84
2021/07/17 12:04:44;;;;;;;3.95;1.85;;;28.60;99.90;;;;;;5028529;28;20790;-80
2021/07/17 12:07:14;;;;;;;4.90;2.10;;;28.60;99.90;;;;;;5026427;28;20225;-82
2021/07/17 12:09:45;;;;;;;4.72;1.70;;;28.80;99.90;;;;;;5027195;28;20591;-82
2021/07/17 12:12:30;;;;;;;3.72;1.90;;;28.70;99.90;;;;;;5026041;28;20293;-81
2021/07/17 12:15:04;;;;;;;4.72;1.58;;;28.70;99.90;;;;;;5026415;28;20320;-84
2021/07/17 12:17:31;;;;;;;2.75;1.30;;;28.70;99.90;;;;;;5006410;28;20207;-82
2021/07/17 12:20:04;;;;;;;3.92;1.45;;;28.60;99.90;;;;;;5008233;28;20203;-84
2021/07/17 12:22:32;;;;;;;6.53;1.65;;;28.40;99.90;;;;;;5008692;28;20210;-79
2021/07/17 12:25:29;;;;;;;2.83;1.38;;;28.40;99.90;;;;;;5007383;28;20211;-82
2021/07/17 12:28:08;;;;;;;2.35;1.50;;;28.30;99.90;;;;;;5005409;28;20643;-83
2021/07/17 12:30:37;;;;;;;3.13;1.52;;;28.20;99.90;;;;;;5007145;28;20206;-81
2021/07/17 12:33:24;;;;;;;5.80;1.60;;;28.30;99.90;;;;;;5021350;28;20199;-79
2021/07/17 12:36:00;;;;;;;5.35;2.35;;;28.50;99.90;;;;;;5005854;28;20794;-83
2021/07/17 12:38:30;;;;;;;3.17;1.63;;;28.60;99.90;;;;;;5007434;28;20276;-85
2021/07/17 12:41:00;;;;;;;3.60;1.48;;;28.70;99.90;;;;;;5008498;28;20219;-81
2021/07/17 12:43:32;;;;;;;4.90;1.45;;;28.60;99.90;;;;;;5009442;28;20202;-82
2021/07/17 12:46:01;;;;;;;5.25;1.67;;;28.60;99.90;;;;;;5008664;28;20218;-81
2021/07/17 12:48:29;;;;;;;4.53;1.63;;;28.70;99.90;;;;;;5005292;28;20231;-81
2021/07/17 12:51:07;;;;;;;6.65;1.95;;;28.50;99.90;;;;;;5005833;28;20207;-84
2021/07/17 12:53:36;;;;;;;5.40;1.50;;;28.50;99.90;;;;;;5004811;28;20241;-84
2021/07/17 12:56:03;;;;;;;3.85;1.40;;;28.60;99.90;;;;;;5005146;28;20219;-80
2021/07/17 12:58:30;;;;;;;4.78;1.80;;;28.50;99.90;;;;;;5005338;28;20223;-80
2021/07/17 13:00:57;;;;;;;3.28;1.20;;;28.50;99.90;;;;;;5006641;28;20222;-81
2021/07/17 13:03:25;;;;;;;1.77;1.02;;;28.50;99.90;;;;;;5006537;28;20195;-82